createdAt,value
2018-05-08T00:01:52.496Z,100528.52
2018-05-08T00:04:19.904Z,100535.04
2018-05-08T00:06:47.791Z,100521.91
2018-05-08T00:09:15.204Z,100524.06
2018-05-08T00:11:42.640Z,100525.84
2018-05-08T00:14:10.047Z,100515.28
2018-05-08T00:16:37.532Z,100515.67
2018-05-08T00:19:04.968Z,100512.09
2018-05-08T00:21:32.383Z,100517.83
2018-05-08T00:23:59.809Z,100515.44
2018-05-08T00:26:27.212Z,100509.62
2018-05-08T00:28:54.631Z,100510.18
2018-05-08T00:31:22.044Z,100507.36
2018-05-08T00:33:49.467Z,100507.18
2018-05-08T00:36:16.883Z,100507.18
2018-05-08T00:38:44.288Z,100500.42
2018-05-08T00:41:11.700Z,100502.95
2018-05-08T00:43:39.103Z,100503.36
2018-05-08T00:46:06.521Z,100507.30
2018-05-08T00:48:34.073Z,100507.06
2018-05-08T00:51:01.475Z,100503.64
2018-05-08T00:53:28.876Z,100504.11
2018-05-08T00:55:56.306Z,100496.52
2018-05-08T00:58:23.983Z,100494.79
2018-05-08T01:00:51.378Z,100496.92
2018-05-08T01:03:18.794Z,100491.70
2018-05-08T01:05:46.208Z,100488.06
2018-05-08T01:08:13.599Z,100484.87
2018-05-08T01:10:41.015Z,100478.92
2018-05-08T01:13:08.439Z,100478.98
2018-05-08T01:15:35.835Z,100471.89
2018-05-08T01:18:03.230Z,100474.27
2018-05-08T01:20:30.645Z,100475.02
2018-05-08T01:22:58.036Z,100469.80
2018-05-08T01:25:25.743Z,100469.31
2018-05-08T01:27:53.148Z,100471.62
2018-05-08T01:30:20.553Z,100467.48
2018-05-08T01:32:47.973Z,100463.67
2018-05-08T01:35:15.383Z,100462.37
2018-05-08T01:37:42.805Z,100464.02
2018-05-08T01:40:10.212Z,100455.63
2018-05-08T01:42:37.621Z,100455.52
2018-05-08T01:45:05.037Z,100453.64
2018-05-08T01:47:32.444Z,100460.66
2018-05-08T01:49:59.857Z,100453.30
2018-05-08T01:52:27.297Z,100457.80
2018-05-08T01:54:54.695Z,100450.45
2018-05-08T01:57:22.116Z,100450.61
2018-05-08T01:59:49.529Z,100448.91
2018-05-08T02:02:16.984Z,100446.45
2018-05-08T02:04:44.397Z,100445.16
2018-05-08T02:07:11.792Z,100447.36
2018-05-08T02:09:39.211Z,100451.03
2018-05-08T02:12:06.616Z,100448.82
2018-05-08T02:14:34.038Z,100451.44
2018-05-08T02:17:01.451Z,100446.39
2018-05-08T02:19:28.864Z,100452.65
2018-05-08T02:21:56.268Z,100443.47
2018-05-08T02:24:23.688Z,100444.27
2018-05-08T02:26:51.093Z,100437.16
2018-05-08T02:29:18.504Z,100440.27
2018-05-08T02:31:45.919Z,100431.78
2018-05-08T02:34:13.319Z,100436.70
2018-05-08T02:36:40.741Z,100428.55
2018-05-08T02:39:08.149Z,100433.19
2018-05-08T02:41:35.553Z,100432.33
2018-05-08T02:44:03.354Z,100436.56
2018-05-08T02:46:31.242Z,100435.39
2018-05-08T02:48:58.653Z,100431.97
2018-05-08T02:51:26.069Z,100430.28
2018-05-08T02:53:53.483Z,100424.88
2018-05-08T02:56:20.905Z,100422.20
2018-05-08T02:58:48.310Z,100429.44
2018-05-08T03:01:16.048Z,100429.01
2018-05-08T03:03:43.452Z,100414.94
2018-05-08T03:06:10.860Z,100428.73
2018-05-08T03:08:38.990Z,100424.10
2018-05-08T03:11:06.645Z,100418.84
2018-05-08T03:13:34.073Z,100425.09
2018-05-08T03:16:01.476Z,100424.69
2018-05-08T03:18:28.895Z,100423.25
2018-05-08T03:20:56.303Z,100424.98
2018-05-08T03:23:23.733Z,100421.33
2018-05-08T03:25:51.140Z,100425.41
2018-05-08T03:28:18.540Z,100419.31
2018-05-08T03:30:45.964Z,100413.84
2018-05-08T03:33:13.364Z,100413.64
2018-05-08T03:35:40.780Z,100414.81
2018-05-08T03:38:08.203Z,100417.49
2018-05-08T03:40:35.604Z,100412.52
2018-05-08T03:43:03.025Z,100411.69
2018-05-08T03:45:30.448Z,100411.86
2018-05-08T03:47:57.868Z,100409.44
2018-05-08T03:50:25.280Z,100414.79
2018-05-08T03:52:52.696Z,100413.41
2018-05-08T03:55:20.100Z,100412.26
2018-05-08T03:57:47.517Z,100405.78
2018-05-08T04:00:26.720Z,100411.16
2018-05-08T04:03:05.697Z,100404.89
2018-05-08T04:05:44.782Z,100403.85
2018-05-08T04:08:35.795Z,100406.21
2018-05-08T04:11:03.217Z,100402.02
2018-05-08T04:13:30.615Z,100397.00
2018-05-08T04:15:58.024Z,100398.05
2018-05-08T04:18:25.443Z,100394.41
2018-05-08T04:20:52.854Z,100400.17
2018-05-08T04:23:20.254Z,100394.27
2018-05-08T04:25:47.680Z,100387.02
2018-05-08T04:28:15.085Z,100386.61
2018-05-08T04:30:42.505Z,100381.25
2018-05-08T04:33:09.916Z,100374.54
2018-05-08T04:35:37.335Z,100380.38
2018-05-08T04:38:04.739Z,100380.08
2018-05-08T04:40:32.140Z,100375.02
2018-05-08T04:42:59.558Z,100378.11
2018-05-08T04:45:26.952Z,100370.07
2018-05-08T04:47:54.367Z,100365.45
2018-05-08T04:50:21.775Z,100363.50
2018-05-08T04:52:49.194Z,100366.86
2018-05-08T04:55:16.601Z,100357.37
2018-05-08T04:57:44.008Z,100354.88
2018-05-08T05:00:11.428Z,100350.93
2018-05-08T05:02:38.881Z,100353.31
2018-05-08T05:05:06.259Z,100350.97
2018-05-08T05:07:33.687Z,100350.19
2018-05-08T05:10:01.104Z,100334.05
2018-05-08T05:12:28.506Z,100338.86
2018-05-08T05:14:55.914Z,100330.22
2018-05-08T05:17:23.331Z,100321.44
2018-05-08T05:19:50.733Z,100316.28
2018-05-08T05:22:18.744Z,100317.14
2018-05-08T05:24:46.142Z,100320.25
2018-05-08T05:27:13.548Z,100312.47
2018-05-08T05:29:40.968Z,100315.98
2018-05-08T05:32:08.368Z,100316.75
2018-05-08T05:34:35.802Z,100312.80
2018-05-08T05:37:03.238Z,100316.18
2018-05-08T05:39:30.635Z,100313.05
2018-05-08T05:41:58.040Z,100316.52
2018-05-08T05:44:25.457Z,100310.99
2018-05-08T05:46:53.132Z,100310.83
2018-05-08T05:49:20.536Z,100311.63
2018-05-08T05:51:47.935Z,100307.77
2018-05-08T05:54:15.358Z,100309.65
2018-05-08T05:56:42.785Z,100311.33
2018-05-08T05:59:10.192Z,100304.56
2018-05-08T06:01:37.596Z,100309.34
2018-05-08T06:04:05.020Z,100305.42
2018-05-08T06:06:32.429Z,100301.64
2018-05-08T06:08:59.844Z,100306.84
2018-05-08T06:11:27.248Z,100309.23
2018-05-08T06:13:54.692Z,100301.27
2018-05-08T06:16:22.104Z,100307.69
2018-05-08T06:18:49.504Z,100298.90
2018-05-08T06:21:16.931Z,100301.65
2018-05-08T06:23:44.330Z,100303.08
2018-05-08T06:26:11.755Z,100305.50
2018-05-08T06:28:39.160Z,100296.12
2018-05-08T06:31:06.577Z,100299.75
2018-05-08T06:33:34.052Z,100306.77
2018-05-08T06:36:01.465Z,100307.84
2018-05-08T06:38:28.872Z,100301.50
2018-05-08T06:40:56.280Z,100302.06
2018-05-08T06:43:23.701Z,100301.80
2018-05-08T06:45:51.107Z,100301.18
2018-05-08T06:48:18.538Z,100299.59
2018-05-08T06:50:45.937Z,100307.24
2018-05-08T06:53:13.346Z,100305.47
2018-05-08T06:55:40.796Z,100310.00
2018-05-08T06:58:08.194Z,100303.41
2018-05-08T07:00:35.608Z,100308.37
2018-05-08T07:03:03.114Z,100301.77
2018-05-08T07:05:30.514Z,100302.89
2018-05-08T07:07:57.914Z,100302.77
2018-05-08T07:10:25.312Z,100298.74
2018-05-08T07:12:52.982Z,100302.16
2018-05-08T07:15:20.386Z,100292.69
2018-05-08T07:17:47.787Z,100292.33
2018-05-08T07:20:15.213Z,100287.25
2018-05-08T07:22:42.636Z,100300.70
2018-05-08T07:25:10.057Z,100290.03
2018-05-08T07:27:37.460Z,100292.75
2018-05-08T07:30:04.926Z,100282.00
2018-05-08T07:32:32.306Z,100277.55
2018-05-08T07:34:59.716Z,100276.77
2018-05-08T07:37:27.124Z,100279.75
2018-05-08T07:39:54.529Z,100277.05
2018-05-08T07:42:22.010Z,100275.56
2018-05-08T07:44:49.408Z,100278.02
2018-05-08T07:47:16.827Z,100271.73
2018-05-08T07:49:44.233Z,100279.45
2018-05-08T07:52:11.980Z,100275.76
2018-05-08T07:54:39.390Z,100272.53
2018-05-08T07:57:07.209Z,100276.12
2018-05-08T07:59:34.619Z,100272.48
2018-05-08T08:02:02.049Z,100267.98
2018-05-08T08:04:29.481Z,100270.33
2018-05-08T08:06:56.885Z,100266.24
2018-05-08T08:09:24.288Z,100272.13
2018-05-08T08:11:51.713Z,100264.30
2018-05-08T08:14:19.123Z,100264.55
2018-05-08T08:16:46.544Z,100263.85
2018-05-08T08:19:13.961Z,100265.23
2018-05-08T08:21:41.368Z,100254.36
2018-05-08T08:24:08.772Z,100256.36
2018-05-08T08:26:36.209Z,100260.23
2018-05-08T08:29:03.637Z,100255.19
2018-05-08T08:31:31.039Z,100250.40
2018-05-08T08:33:58.471Z,100248.30
2018-05-08T08:36:25.871Z,100249.18
2018-05-08T08:38:53.288Z,100243.67
2018-05-08T08:41:20.712Z,100244.37
2018-05-08T08:43:48.297Z,100237.17
2018-05-08T08:46:15.695Z,100243.00
2018-05-08T08:48:43.108Z,100236.52
2018-05-08T08:51:10.540Z,100237.09
2018-05-08T08:53:37.951Z,100241.41
2018-05-08T08:56:05.408Z,100233.78
2018-05-08T08:58:32.773Z,100229.64
2018-05-08T09:01:00.198Z,100226.26
2018-05-08T09:03:27.900Z,100222.19
2018-05-08T09:05:55.305Z,100225.22
2018-05-08T09:08:22.705Z,100215.34
2018-05-08T09:10:50.125Z,100216.53
2018-05-08T09:13:17.551Z,100208.23
2018-05-08T09:15:44.964Z,100214.91
2018-05-08T09:18:12.404Z,100210.28
2018-05-08T09:20:39.871Z,100212.94
2018-05-08T09:23:07.269Z,100208.59
2018-05-08T09:25:34.672Z,100202.59
2018-05-08T09:28:02.096Z,100202.15
2018-05-08T09:30:29.528Z,100199.11
2018-05-08T09:32:57.009Z,100201.77
2018-05-08T09:35:24.337Z,100188.12
2018-05-08T09:37:51.757Z,100197.89
2018-05-08T09:40:19.159Z,100195.50
2018-05-08T09:42:46.580Z,100187.16
2018-05-08T09:45:13.988Z,100189.83
2018-05-08T09:47:41.408Z,100176.71
2018-05-08T09:50:08.815Z,100169.61
2018-05-08T09:52:36.236Z,100176.23
2018-05-08T09:55:03.637Z,100169.80
2018-05-08T09:57:31.039Z,100165.75
2018-05-08T09:59:58.597Z,100162.68
2018-05-08T10:02:26.006Z,100164.08
2018-05-08T10:04:53.401Z,100160.64
2018-05-08T10:07:20.824Z,100168.05
2018-05-08T10:09:48.233Z,100161.12
2018-05-08T10:12:15.684Z,100157.48
2018-05-08T10:14:43.087Z,100155.87
2018-05-08T10:17:10.649Z,100151.27
2018-05-08T10:19:38.135Z,100152.08
2018-05-08T10:22:05.602Z,100151.23
2018-05-08T10:24:33.065Z,100147.22
2018-05-08T10:27:00.427Z,100142.67
2018-05-08T10:29:27.846Z,100132.22
2018-05-08T10:31:55.252Z,100130.19
2018-05-08T10:34:22.663Z,100140.77
2018-05-08T10:36:50.096Z,100133.22
2018-05-08T10:39:17.503Z,100124.41
2018-05-08T10:41:44.948Z,100120.05
2018-05-08T10:44:12.420Z,100138.95
2018-05-08T10:46:40.095Z,100126.26
2018-05-08T10:49:07.636Z,100117.45
2018-05-08T10:51:35.037Z,100109.92
2018-05-08T10:54:02.459Z,100121.85
2018-05-08T10:56:30.428Z,100117.47
2018-05-08T10:58:57.853Z,100123.03
2018-05-08T11:01:25.268Z,100101.37
2018-05-08T11:03:52.679Z,100120.23
2018-05-08T11:06:20.080Z,100114.48
2018-05-08T11:08:47.506Z,100109.45
2018-05-08T11:11:14.911Z,100091.86
2018-05-08T11:13:42.320Z,100112.55
2018-05-08T11:16:09.731Z,100103.33
2018-05-08T11:18:37.173Z,100114.05
2018-05-08T11:21:04.579Z,100102.89
2018-05-08T11:23:31.984Z,100108.66
2018-05-08T11:25:59.408Z,100092.36
2018-05-08T11:28:35.326Z,100088.89
2018-05-08T11:31:02.912Z,100092.45
2018-05-08T11:33:30.319Z,100084.90
2018-05-08T11:35:57.752Z,100067.25
2018-05-08T11:38:25.175Z,100063.58
2018-05-08T11:40:52.578Z,100069.25
2018-05-08T11:43:20.010Z,100053.36
2018-05-08T11:45:47.412Z,100060.16
2018-05-08T11:48:14.842Z,100053.68
2018-05-08T11:50:42.310Z,100044.58
2018-05-08T11:53:09.729Z,100051.93
2018-05-08T11:55:37.156Z,100030.44
2018-05-08T11:58:04.559Z,100035.92
2018-05-08T12:00:31.980Z,100036.48
2018-05-08T12:02:59.392Z,100032.42
2018-05-08T12:05:26.917Z,100034.32
2018-05-08T12:07:54.325Z,100039.84
2018-05-08T12:10:21.723Z,100027.23
2018-05-08T12:12:49.148Z,100027.05
2018-05-08T12:15:16.546Z,100018.84
2018-05-08T12:17:43.959Z,100011.86
2018-05-08T12:20:11.369Z,100012.38
2018-05-08T12:22:38.764Z,100013.87
2018-05-08T12:25:06.196Z,100009.73
2018-05-08T12:27:33.610Z,100004.27
2018-05-08T12:30:01.008Z,100001.84
2018-05-08T12:32:28.438Z,100005.20
2018-05-08T12:34:55.851Z,100006.81
2018-05-08T12:37:23.272Z,99989.16
2018-05-08T12:39:50.671Z,99996.08
2018-05-08T12:42:18.079Z,99996.39
2018-05-08T12:44:45.493Z,99984.92
2018-05-08T12:47:12.944Z,99989.89
2018-05-08T12:49:40.393Z,99987.47
2018-05-08T12:52:07.783Z,99979.09
2018-05-08T12:54:35.205Z,99979.02
2018-05-08T12:57:02.595Z,99979.16
2018-05-08T12:59:30.056Z,99974.75
2018-05-08T13:01:57.490Z,99972.59
2018-05-08T13:04:24.909Z,99970.94
2018-05-08T13:06:52.341Z,99965.52
2018-05-08T13:09:19.740Z,99968.19
2018-05-08T13:11:47.141Z,99948.49
2018-05-08T13:14:14.553Z,99946.27
2018-05-08T13:16:41.970Z,99966.38
2018-05-08T13:19:09.372Z,99960.17
2018-05-08T13:21:36.769Z,99947.76
2018-05-08T13:24:04.176Z,99955.52
2018-05-08T13:26:31.579Z,99942.73
2018-05-08T13:28:59.015Z,99944.47
2018-05-08T13:31:26.417Z,99939.46
2018-05-08T13:33:53.988Z,99943.45
2018-05-08T13:36:21.396Z,99952.25
2018-05-08T13:38:48.793Z,99939.22
2018-05-08T13:41:17.314Z,99936.17
2018-05-08T13:43:44.715Z,99930.05
2018-05-08T13:46:12.220Z,99920.84
2018-05-08T13:48:39.651Z,99931.27
2018-05-08T13:51:07.060Z,99925.08
2018-05-08T13:53:34.474Z,99915.73
2018-05-08T13:56:01.865Z,99918.43
2018-05-08T13:58:29.272Z,99918.59
2018-05-08T14:00:57.015Z,99921.95
2018-05-08T14:03:24.364Z,99916.30
2018-05-08T14:05:51.767Z,99916.78
2018-05-08T14:08:19.237Z,99922.30
2018-05-08T14:10:46.641Z,99907.87
2018-05-08T14:13:14.053Z,99905.57
2018-05-08T14:15:41.464Z,99902.06
2018-05-08T14:18:08.868Z,99902.87
2018-05-08T14:20:36.280Z,99896.98
2018-05-08T14:23:03.686Z,99906.52
2018-05-08T14:28:00.128Z,99894.66
2018-05-08T14:30:27.518Z,99889.70
2018-05-08T14:32:54.932Z,99886.02
2018-05-08T14:35:22.344Z,99886.11
2018-05-08T14:37:49.758Z,99878.25
2018-05-08T14:40:17.170Z,99875.75
2018-05-08T14:42:44.572Z,99856.59
2018-05-08T14:45:11.993Z,99872.66
2018-05-08T14:47:39.401Z,99860.12
2018-05-08T14:50:06.792Z,99866.31
2018-05-08T14:52:34.228Z,99869.36
2018-05-08T14:55:01.636Z,99866.00
2018-05-08T14:57:29.045Z,99862.56
2018-05-08T14:59:56.468Z,99859.82
2018-05-08T15:02:23.880Z,99856.03
2018-05-08T15:04:51.286Z,99858.22
2018-05-08T15:07:18.696Z,99853.03
2018-05-08T15:09:46.112Z,99855.39
2018-05-08T15:12:13.511Z,99859.48
2018-05-08T15:14:40.921Z,99847.41
2018-05-08T15:17:08.412Z,99849.58
2018-05-08T15:19:35.809Z,99860.34
2018-05-08T15:22:03.226Z,99851.66
2018-05-08T15:24:30.637Z,99848.90
2018-05-08T15:26:58.043Z,99847.41
2018-05-08T15:29:25.432Z,99839.80
2018-05-08T15:31:52.849Z,99845.20
2018-05-08T15:34:20.249Z,99844.94
2018-05-08T15:36:47.649Z,99839.80
2018-05-08T15:39:15.076Z,99844.06
2018-05-08T15:41:42.481Z,99826.19
2018-05-08T15:44:09.891Z,99833.63
2018-05-08T15:46:37.296Z,99826.75
2018-05-08T15:49:04.736Z,99828.33
2018-05-08T15:51:32.136Z,99824.70
2018-05-08T15:53:59.556Z,99826.26
2018-05-08T15:56:26.960Z,99828.16
2018-05-08T15:58:54.392Z,99826.30
2018-05-08T16:01:21.804Z,99817.87
2018-05-08T16:03:49.212Z,99817.48
2018-05-08T16:06:16.627Z,99820.02
2018-05-08T16:08:44.117Z,99812.84
2018-05-08T16:11:11.423Z,99813.64
2018-05-08T16:13:38.834Z,99812.47
2018-05-08T16:16:06.281Z,99817.66
2018-05-08T16:18:33.832Z,99818.13
2018-05-08T16:21:01.277Z,99812.25
2018-05-08T16:23:28.628Z,99812.33
2018-05-08T16:25:56.049Z,99812.33
2018-05-08T16:28:23.458Z,99808.16
2018-05-08T16:30:50.883Z,99802.83
2018-05-08T16:33:18.280Z,99805.09
2018-05-08T16:35:45.690Z,99802.09
2018-05-08T16:38:13.100Z,99803.37
2018-05-08T16:40:40.509Z,99795.29
2018-05-08T16:43:07.917Z,99792.55
2018-05-08T16:45:35.328Z,99788.47
2018-05-08T16:48:02.756Z,99794.21
2018-05-08T16:50:30.158Z,99791.14
2018-05-08T16:52:57.568Z,99791.53
2018-05-08T16:55:24.975Z,99786.73
2018-05-08T16:57:52.397Z,99779.45
2018-05-08T17:00:19.800Z,99789.19
2018-05-08T17:02:47.208Z,99783.69
2018-05-08T17:05:14.620Z,99777.09
2018-05-08T17:07:42.032Z,99783.28
2018-05-08T17:10:09.648Z,99777.41
2018-05-08T17:12:37.064Z,99782.20
2018-05-08T17:15:04.464Z,99786.13
2018-05-08T17:17:32.148Z,99782.65
2018-05-08T17:19:59.548Z,99779.75
2018-05-08T17:22:26.949Z,99774.98
2018-05-08T17:24:54.368Z,99778.47
2018-05-08T17:27:21.785Z,99783.11
2018-05-08T17:29:49.284Z,99777.75
2018-05-08T17:32:16.748Z,99775.86
2018-05-08T17:34:44.148Z,99774.31
2018-05-08T17:37:11.569Z,99783.80
2018-05-08T17:39:38.964Z,99781.05
2018-05-08T17:42:06.389Z,99789.43
2018-05-08T17:44:33.810Z,99786.98
2018-05-08T17:47:01.228Z,99785.41
2018-05-08T17:49:28.713Z,99781.72
2018-05-08T17:51:56.124Z,99787.41
2018-05-08T17:54:23.850Z,99782.31
2018-05-08T17:56:51.241Z,99782.91
2018-05-08T17:59:18.638Z,99786.26
2018-05-08T18:01:46.052Z,99789.16
2018-05-08T18:04:13.546Z,99792.41
2018-05-08T18:06:40.865Z,99787.06
2018-05-08T18:09:08.296Z,99794.17
2018-05-08T18:11:35.731Z,99797.91
2018-05-08T18:14:03.137Z,99796.72
2018-05-08T18:16:30.536Z,99798.80
2018-05-08T18:18:57.952Z,99791.40
2018-05-08T18:21:25.357Z,99790.34
2018-05-08T18:23:52.784Z,99796.53
2018-05-08T18:26:20.196Z,99788.55
2018-05-08T18:28:47.592Z,99791.50
2018-05-08T18:31:15.072Z,99787.58
2018-05-08T18:33:42.921Z,99793.16
2018-05-08T18:36:10.467Z,99791.42
2018-05-08T18:38:38.022Z,99790.83
2018-05-08T18:41:05.429Z,99790.86
2018-05-08T18:43:32.840Z,99794.55
2018-05-08T18:46:00.525Z,99790.42
2018-05-08T18:48:27.939Z,99789.55
2018-05-08T18:50:55.465Z,99790.94
2018-05-08T18:53:23.020Z,99794.34
2018-05-08T18:55:50.457Z,99798.70
2018-05-08T18:58:17.852Z,99796.78
2018-05-08T19:00:50.977Z,99800.69
2018-05-08T19:03:18.449Z,99797.56
2018-05-08T19:05:45.878Z,99798.40
2018-05-08T19:08:13.459Z,99800.67
2018-05-08T19:10:40.950Z,99801.69
2018-05-08T19:13:08.368Z,99801.91
2018-05-08T19:15:41.381Z,99807.60
2018-05-08T19:18:08.923Z,99809.69
2018-05-08T19:20:36.325Z,99807.95
2018-05-08T19:23:03.723Z,99808.59
2018-05-08T19:25:31.169Z,99806.39
2018-05-08T19:28:04.291Z,99813.26
2018-05-08T19:30:31.701Z,99814.14
2018-05-08T19:32:59.116Z,99815.96
2018-05-08T19:35:32.114Z,99804.33
2018-05-08T19:38:02.486Z,99810.72
2018-05-08T19:40:29.917Z,99808.93
2018-05-08T19:42:57.480Z,99811.14
2018-05-08T19:45:25.188Z,99817.19
2018-05-08T19:47:52.904Z,99811.97
2018-05-08T19:50:20.313Z,99813.01
2018-05-08T19:52:47.747Z,99809.02
2018-05-08T19:55:15.159Z,99813.19
2018-05-08T19:57:42.573Z,99816.56
2018-05-08T20:00:10.034Z,99814.00
2018-05-08T20:02:37.426Z,99819.44
2018-05-08T20:05:04.848Z,99818.84
2018-05-08T20:07:32.264Z,99818.37
2018-05-08T20:09:59.676Z,99824.89
2018-05-08T20:12:27.085Z,99828.50
2018-05-08T20:14:54.509Z,99826.23
2018-05-08T20:17:21.906Z,99826.97
2018-05-08T20:19:49.307Z,99829.32
2018-05-08T20:22:16.708Z,99830.06
2018-05-08T20:24:44.512Z,99832.20
2018-05-08T20:27:11.908Z,99831.14
2018-05-08T20:29:39.310Z,99829.62
2018-05-08T20:32:06.722Z,99829.96
2018-05-08T20:34:34.121Z,99817.66
2018-05-08T20:37:01.605Z,99829.42
2018-05-08T20:39:29.114Z,99825.79
2018-05-08T20:41:56.508Z,99829.89
2018-05-08T20:44:23.964Z,99830.63
2018-05-08T20:46:51.364Z,99830.34
2018-05-08T20:49:18.759Z,99824.84
2018-05-08T20:51:46.184Z,99837.90
2018-05-08T20:54:13.595Z,99827.47
2018-05-08T20:56:41.007Z,99839.34
2018-05-08T20:59:08.425Z,99836.86
2018-05-08T21:01:35.836Z,99828.97
2018-05-08T21:04:03.252Z,99829.48
2018-05-08T21:06:30.679Z,99828.40
2018-05-08T21:08:58.072Z,99822.93
2018-05-08T21:11:25.464Z,99825.44
2018-05-08T21:13:53.294Z,99826.94
2018-05-08T21:16:29.808Z,99822.66
2018-05-08T21:18:57.600Z,99826.18
2018-05-08T21:21:25.000Z,99827.50
2018-05-08T21:23:52.441Z,99828.40
2018-05-08T21:26:19.896Z,99836.73
2018-05-08T21:28:53.017Z,99832.25
2018-05-08T21:31:20.432Z,99836.55
2018-05-08T21:33:47.836Z,99843.23
2018-05-08T21:36:15.253Z,99839.13
2018-05-08T21:38:42.658Z,99839.78
2018-05-08T21:41:10.071Z,99842.66
2018-05-08T21:43:37.525Z,99843.92
2018-05-08T21:46:04.928Z,99843.80
2018-05-08T21:48:32.386Z,99846.89
2018-05-08T21:50:59.838Z,99845.38
2018-05-08T21:53:27.336Z,99844.42
2018-05-08T21:55:54.741Z,99839.66
2018-05-08T21:58:22.163Z,99840.73
2018-05-08T22:00:49.559Z,99836.79
2018-05-08T22:03:16.960Z,99840.86
2018-05-08T22:05:44.693Z,99842.70
2018-05-08T22:08:12.084Z,99840.78
2018-05-08T22:10:39.484Z,99844.66
2018-05-08T22:13:06.921Z,99840.31
2018-05-08T22:15:34.316Z,99839.36
2018-05-08T22:18:01.709Z,99838.80
2018-05-08T22:20:29.128Z,99838.23
2018-05-08T22:22:56.538Z,99833.88
2018-05-08T22:25:23.956Z,99840.70
2018-05-08T22:27:51.383Z,99842.53
2018-05-08T22:30:18.876Z,99841.58
2018-05-08T22:32:46.273Z,99835.67
2018-05-08T22:35:13.695Z,99836.70
2018-05-08T22:37:41.124Z,99829.36
2018-05-08T22:40:08.544Z,99839.39
2018-05-08T22:42:36.386Z,99838.04
2018-05-08T22:45:03.820Z,99830.30
2018-05-08T22:47:31.216Z,99824.55
2018-05-08T22:49:58.636Z,99817.25
2018-05-08T22:52:26.040Z,99822.44
2018-05-08T22:54:53.444Z,99817.69
2018-05-08T22:57:20.854Z,99815.93
2018-05-08T22:59:48.260Z,99815.96
2018-05-08T23:02:15.668Z,99808.89
2018-05-08T23:04:43.068Z,99815.63
2018-05-08T23:07:10.476Z,99811.31
2018-05-08T23:09:37.907Z,99815.53
2018-05-08T23:12:05.296Z,99809.44
2018-05-08T23:14:32.724Z,99804.75
2018-05-08T23:17:00.128Z,99807.45
2018-05-08T23:19:27.532Z,99803.61
2018-05-08T23:21:54.987Z,99800.93
2018-05-08T23:24:22.384Z,99802.39
2018-05-08T23:26:49.813Z,99807.60
2018-05-08T23:29:17.204Z,99808.69
2018-05-08T23:31:44.622Z,99806.54
2018-05-08T23:34:12.295Z,99800.62
2018-05-08T23:36:39.697Z,99795.87
2018-05-08T23:39:07.097Z,99798.51
2018-05-08T23:41:34.531Z,99792.76
2018-05-08T23:44:01.924Z,99795.98
2018-05-08T23:46:29.389Z,99793.79
2018-05-08T23:48:57.139Z,99795.99
2018-05-08T23:51:24.536Z,99798.02
2018-05-08T23:53:51.947Z,99796.86
2018-05-08T23:56:19.411Z,99789.35
2018-05-08T23:58:46.839Z,99790.77
